Aérodrome :
LOGIN :

S'inscrire | Disclaimer

   EN    FR    IT 

 










Légende :    VFR   VFR Marginal   IFR   IFR Intensif   IFR Très Intensif
Visi : 
Plafond : 
>= 8 km
>= 3000ft
5 à 8 km
1000 à 3000 ft
1500m à 5 km
500 à 1000 ft
800 à 1500m
200 à 500 ft
< 800m
< 200 ft
Symboles :   Orages  Brouillard  Fortes neiges  Fortes précipitations  Vent > 20 kt
SIGMETs :   Divers  Orages  Givrage  Turbulence  Onde Orograph.  Cendres Volcan.







- Altitude de l'aérodrome : 375 ft
- Code IATA : MST


EHBK - Maastricht Aachen

DERNIER METAR :
  • 210725Z AUTO 10005KT 9999 OVC031 03/01 Q1013 NOSIG

METARs EXPIRÉS :
  • 210655Z AUTO 09005KT 9999 BKN022 OVC031 03/01 Q1013 NOSIG
  • 210625Z AUTO 10005KT 9999 FEW015CB OVC020 03/01 Q1012 NOSIG
  • 210555Z AUTO 09005KT 9999 FEW015CB OVC021 03/01 Q1012 NOSIG
  • 210525Z AUTO 09005KT 9999 OVC024 03/01 Q1012 NOSIG
  • 210455Z AUTO 09004KT 060V120 9999 -DZ FEW015CB SCT023 03/01 Q1011 REDZ NOSIG

TAF TAF EHBK
Valide du 21 à 06h jusqu'au 22 à 12h UTC


210446Z 2106/2212 08006KT CAVOK
BECMG 2122/2201 6000
PROB40 2201/2208 4000 BR
BECMG 2209/2211 CAVOK
Pas de NOTAMs connus pour ce terrain.



MET'MAP, la Météo Aéronautique d'un coup d'oeil ! - Copyright ORBIFLY Décembre 2007 - Disclaimer

ORBIFLY MET'MAP TEAM :

Programmation & Développement : Alexandra Zaïnal
Conception & Développement : Baudouin d'Aumeries
Co-Programmation & Développement : Marc-Olivier Méhu
Soutien technique & logistique : Manuel Goepfert

Contact : metmap@orbifly.com




SOURCES & CREDITS :

   NOAA